sensor_id;sensor_type;location;lat;lon;timestamp;temperature;humidity
74376;HTU21D;62812;55.188;61.302;2023-06-14T00:01:19;14.19;43.96
74376;HTU21D;62812;55.188;61.302;2023-06-14T00:03:46;14.40;44.53
74376;HTU21D;62812;55.188;61.302;2023-06-14T00:06:13;14.64;43.16
74376;HTU21D;62812;55.188;61.302;2023-06-14T00:08:40;14.83;42.81
74376;HTU21D;62812;55.188;61.302;2023-06-14T00:11:09;14.87;43.51
74376;HTU21D;62812;55.188;61.302;2023-06-14T00:13:35;15.07;42.11
74376;HTU21D;62812;55.188;61.302;2023-06-14T00:16:02;15.37;41.68
74376;HTU21D;62812;55.188;61.302;2023-06-14T00:18:30;15.80;39.30
74376;HTU21D;62812;55.188;61.302;2023-06-14T00:20:57;16.08;38.62
74376;HTU21D;62812;55.188;61.302;2023-06-14T00:23:24;16.40;38.01
74376;HTU21D;62812;55.188;61.302;2023-06-14T00:25:53;16.39;38.23
74376;HTU21D;62812;55.188;61.302;2023-06-14T00:28:22;16.27;39.91
74376;HTU21D;62812;55.188;61.302;2023-06-14T00:30:49;16.56;38.73
74376;HTU21D;62812;55.188;61.302;2023-06-14T00:33:16;16.86;36.59
74376;HTU21D;62812;55.188;61.302;2023-06-14T00:35:43;17.28;37.05
74376;HTU21D;62812;55.188;61.302;2023-06-14T00:38:09;17.56;36.45
74376;HTU21D;62812;55.188;61.302;2023-06-14T00:40:36;17.75;34.71
74376;HTU21D;62812;55.188;61.302;2023-06-14T00:43:02;18.03;34.64
74376;HTU21D;62812;55.188;61.302;2023-06-14T00:45:31;18.08;33.86
74376;HTU21D;62812;55.188;61.302;2023-06-14T00:48:02;17.98;34.93
74376;HTU21D;62812;55.188;61.302;2023-06-14T00:50:29;17.99;34.68
74376;HTU21D;62812;55.188;61.302;2023-06-14T00:52:58;18.28;34.19
74376;HTU21D;62812;55.188;61.302;2023-06-14T00:55:26;18.57;33.40
74376;HTU21D;62812;55.188;61.302;2023-06-14T00:57:53;18.70;33.65
74376;HTU21D;62812;55.188;61.302;2023-06-14T01:00:21;18.95;33.95
74376;HTU21D;62812;55.188;61.302;2023-06-14T01:02:49;19.14;33.08
74376;HTU21D;62812;55.188;61.302;2023-06-14T01:05:19;19.17;33.76
74376;HTU21D;62812;55.188;61.302;2023-06-14T01:07:55;19.07;33.62
74376;HTU21D;62812;55.188;61.302;2023-06-14T01:10:32;19.10;33.22
74376;HTU21D;62812;55.188;61.302;2023-06-14T01:13:07;19.11;33.74
74376;HTU21D;62812;55.188;61.302;2023-06-14T01:15:40;19.27;33.34
74376;HTU21D;62812;55.188;61.302;2023-06-14T01:18:11;19.68;33.09
74376;HTU21D;62812;55.188;61.302;2023-06-14T01:20:44;19.96;32.64
74376;HTU21D;62812;55.188;61.302;2023-06-14T01:23:19;20.11;31.67
74376;HTU21D;62812;55.188;61.302;2023-06-14T01:25:47;20.55;31.70
74376;HTU21D;62812;55.188;61.302;2023-06-14T01:28:15;20.90;31.64
74376;HTU21D;62812;55.188;61.302;2023-06-14T01:30:44;20.95;30.46
74376;HTU21D;62812;55.188;61.302;2023-06-14T01:33:12;21.17;30.32
74376;HTU21D;62812;55.188;61.302;2023-06-14T01:35:40;21.40;29.74
74376;HTU21D;62812;55.188;61.302;2023-06-14T01:38:07;21.57;29.44
74376;HTU21D;62812;55.188;61.302;2023-06-14T01:40:36;21.70;28.94
74376;HTU21D;62812;55.188;61.302;2023-06-14T01:43:03;22.01;28.29
74376;HTU21D;62812;55.188;61.302;2023-06-14T01:45:32;22.33;28.92
74376;HTU21D;62812;55.188;61.302;2023-06-14T01:48:00;22.65;28.56
74376;HTU21D;62812;55.188;61.302;2023-06-14T01:50:28;22.68;28.79
74376;HTU21D;62812;55.188;61.302;2023-06-14T01:52:56;22.52;27.45
74376;HTU21D;62812;55.188;61.302;2023-06-14T01:55:23;22.61;27.74
74376;HTU21D;62812;55.188;61.302;2023-06-14T01:57:55;22.67;28.03
74376;HTU21D;62812;55.188;61.302;2023-06-14T02:00:22;22.94;27.97
74376;HTU21D;62812;55.188;61.302;2023-06-14T02:02:50;23.06;26.80
74376;HTU21D;62812;55.188;61.302;2023-06-14T02:05:18;23.18;26.75
74376;HTU21D;62812;55.188;61.302;2023-06-14T02:07:45;23.44;24.98
74376;HTU21D;62812;55.188;61.302;2023-06-14T02:10:14;23.70;25.08
74376;HTU21D;62812;55.188;61.302;2023-06-14T02:12:42;23.65;25.01
74376;HTU21D;62812;55.188;61.302;2023-06-14T02:15:11;23.60;25.07
74376;HTU21D;62812;55.188;61.302;2023-06-14T02:17:46;23.66;24.94
74376;HTU21D;62812;55.188;61.302;2023-06-14T02:20:15;23.65;24.24
74376;HTU21D;62812;55.188;61.302;2023-06-14T02:22:43;23.53;25.20
74376;HTU21D;62812;55.188;61.302;2023-06-14T02:25:13;23.58;25.18
74376;HTU21D;62812;55.188;61.302;2023-06-14T02:27:42;23.82;24.57
74376;HTU21D;62812;55.188;61.302;2023-06-14T02:30:13;23.83;24.54
74376;HTU21D;62812;55.188;61.302;2023-06-14T02:32:41;24.04;24.83
74376;HTU21D;62812;55.188;61.302;2023-06-14T02:35:09;24.16;24.27
74376;HTU21D;62812;55.188;61.302;2023-06-14T02:37:38;24.33;24.17
74376;HTU21D;62812;55.188;61.302;2023-06-14T02:40:07;24.46;23.81
74376;HTU21D;62812;55.188;61.302;2023-06-14T02:42:35;24.49;23.06
74376;HTU21D;62812;55.188;61.302;2023-06-14T02:45:02;24.56;23.63
74376;HTU21D;62812;55.188;61.302;2023-06-14T02:47:34;24.60;23.34
74376;HTU21D;62812;55.188;61.302;2023-06-14T02:50:22;24.66;23.98
74376;HTU21D;62812;55.188;61.302;2023-06-14T02:52:50;24.74;23.59
74376;HTU21D;62812;55.188;61.302;2023-06-14T02:55:21;24.79;23.12
74376;HTU21D;62812;55.188;61.302;2023-06-14T02:57:57;24.85;23.72
74376;HTU21D;62812;55.188;61.302;2023-06-14T03:00:30;24.89;23.36
74376;HTU21D;62812;55.188;61.302;2023-06-14T03:03:03;25.03;22.79
74376;HTU21D;62812;55.188;61.302;2023-06-14T03:05:32;24.86;22.73
74376;HTU21D;62812;55.188;61.302;2023-06-14T03:08:08;24.97;23.11
74376;HTU21D;62812;55.188;61.302;2023-06-14T03:10:38;24.95;22.96
74376;HTU21D;62812;55.188;61.302;2023-06-14T03:13:06;24.97;23.27
74376;HTU21D;62812;55.188;61.302;2023-06-14T03:15:35;25.03;22.34
74376;HTU21D;62812;55.188;61.302;2023-06-14T03:18:07;25.09;21.40
74376;HTU21D;62812;55.188;61.302;2023-06-14T03:20:35;25.09;21.82
74376;HTU21D;62812;55.188;61.302;2023-06-14T03:23:02;25.19;21.44
74376;HTU21D;62812;55.188;61.302;2023-06-14T03:25:30;25.48;21.17
74376;HTU21D;62812;55.188;61.302;2023-06-14T03:27:57;25.58;19.63
74376;HTU21D;62812;55.188;61.302;2023-06-14T03:30:24;25.51;19.47
74376;HTU21D;62812;55.188;61.302;2023-06-14T03:32:50;25.74;20.50
74376;HTU21D;62812;55.188;61.302;2023-06-14T03:35:20;25.97;18.88
74376;HTU21D;62812;55.188;61.302;2023-06-14T03:37:47;25.95;19.08
74376;HTU21D;62812;55.188;61.302;2023-06-14T03:40:15;25.68;19.38
74376;HTU21D;62812;55.188;61.302;2023-06-14T03:42:42;25.57;19.62
74376;HTU21D;62812;55.188;61.302;2023-06-14T03:45:09;25.63;20.15
74376;HTU21D;62812;55.188;61.302;2023-06-14T03:47:36;25.80;19.89
74376;HTU21D;62812;55.188;61.302;2023-06-14T03:50:03;25.92;20.38
74376;HTU21D;62812;55.188;61.302;2023-06-14T03:52:33;26.02;20.37
74376;HTU21D;62812;55.188;61.302;2023-06-14T03:55:00;26.09;19.18
74376;HTU21D;62812;55.188;61.302;2023-06-14T03:57:29;26.21;18.96
74376;HTU21D;62812;55.188;61.302;2023-06-14T03:59:56;26.37;17.06
74376;HTU21D;62812;55.188;61.302;2023-06-14T04:02:23;26.33;17.28
74376;HTU21D;62812;55.188;61.302;2023-06-14T04:04:49;26.39;17.61
74376;HTU21D;62812;55.188;61.302;2023-06-14T04:07:17;26.52;17.49
74376;HTU21D;62812;55.188;61.302;2023-06-14T04:09:49;26.34;16.82
74376;HTU21D;62812;55.188;61.302;2023-06-14T04:12:17;26.27;16.19
74376;HTU21D;62812;55.188;61.302;2023-06-14T04:14:43;26.10;15.99
74376;HTU21D;62812;55.188;61.302;2023-06-14T04:17:10;26.01;16.53
74376;HTU21D;62812;55.188;61.302;2023-06-14T04:19:37;25.99;17.11
74376;HTU21D;62812;55.188;61.302;2023-06-14T04:22:05;25.97;17.38
74376;HTU21D;62812;55.188;61.302;2023-06-14T04:24:32;25.98;18.12
74376;HTU21D;62812;55.188;61.302;2023-06-14T04:27:02;26.09;18.83
74376;HTU21D;62812;55.188;61.302;2023-06-14T04:29:29;26.25;18.30
74376;HTU21D;62812;55.188;61.302;2023-06-14T04:31:57;26.25;18.14
74376;HTU21D;62812;55.188;61.302;2023-06-14T04:34:28;26.50;19.96
74376;HTU21D;62812;55.188;61.302;2023-06-14T04:37:00;26.48;16.78
74376;HTU21D;62812;55.188;61.302;2023-06-14T04:39:27;26.51;16.92
74376;HTU21D;62812;55.188;61.302;2023-06-14T04:41:54;26.43;17.32
74376;HTU21D;62812;55.188;61.302;2023-06-14T04:44:24;26.34;17.09
74376;HTU21D;62812;55.188;61.302;2023-06-14T04:46:56;26.31;17.47
74376;HTU21D;62812;55.188;61.302;2023-06-14T04:49:23;26.35;18.30
74376;HTU21D;62812;55.188;61.302;2023-06-14T04:51:50;26.68;17.89
74376;HTU21D;62812;55.188;61.302;2023-06-14T04:54:23;26.82;16.13
74376;HTU21D;62812;55.188;61.302;2023-06-14T04:56:51;26.54;17.13
74376;HTU21D;62812;55.188;61.302;2023-06-14T04:59:19;26.50;17.26
74376;HTU21D;62812;55.188;61.302;2023-06-14T05:01:48;26.42;17.96
74376;HTU21D;62812;55.188;61.302;2023-06-14T05:04:15;26.63;19.18
74376;HTU21D;62812;55.188;61.302;2023-06-14T05:06:43;26.76;17.71
74376;HTU21D;62812;55.188;61.302;2023-06-14T05:09:14;26.75;17.49
74376;HTU21D;62812;55.188;61.302;2023-06-14T05:11:42;26.56;18.23
74376;HTU21D;62812;55.188;61.302;2023-06-14T05:14:11;26.58;19.20
74376;HTU21D;62812;55.188;61.302;2023-06-14T05:16:39;26.63;19.46
74376;HTU21D;62812;55.188;61.302;2023-06-14T05:19:12;26.49;19.14
74376;HTU21D;62812;55.188;61.302;2023-06-14T05:21:40;26.39;18.43
74376;HTU21D;62812;55.188;61.302;2023-06-14T05:24:07;26.49;19.02
74376;HTU21D;62812;55.188;61.302;2023-06-14T05:26:35;26.51;18.75
74376;HTU21D;62812;55.188;61.302;2023-06-14T05:29:03;26.49;19.70
74376;HTU21D;62812;55.188;61.302;2023-06-14T05:31:29;26.64;18.13
74376;HTU21D;62812;55.188;61.302;2023-06-14T05:33:56;26.65;18.08
74376;HTU21D;62812;55.188;61.302;2023-06-14T05:36:25;26.66;19.50
74376;HTU21D;62812;55.188;61.302;2023-06-14T05:38:54;26.63;18.31
74376;HTU21D;62812;55.188;61.302;2023-06-14T05:41:26;26.77;19.96
74376;HTU21D;62812;55.188;61.302;2023-06-14T05:43:56;26.55;18.43
74376;HTU21D;62812;55.188;61.302;2023-06-14T05:46:24;26.26;19.22
74376;HTU21D;62812;55.188;61.302;2023-06-14T05:48:53;26.12;20.89
74376;HTU21D;62812;55.188;61.302;2023-06-14T05:58:03;25.74;21.28
74376;HTU21D;62812;55.188;61.302;2023-06-14T06:00:30;26.21;20.46
74376;HTU21D;62812;55.188;61.302;2023-06-14T06:02:58;26.21;20.25
74376;HTU21D;62812;55.188;61.302;2023-06-14T06:05:25;26.04;19.34
74376;HTU21D;62812;55.188;61.302;2023-06-14T06:07:55;25.62;20.81
74376;HTU21D;62812;55.188;61.302;2023-06-14T06:10:22;25.58;21.74
74376;HTU21D;62812;55.188;61.302;2023-06-14T06:12:49;25.36;20.32
74376;HTU21D;62812;55.188;61.302;2023-06-14T06:15:20;25.42;22.60
74376;HTU21D;62812;55.188;61.302;2023-06-14T06:17:47;25.65;21.07
74376;HTU21D;62812;55.188;61.302;2023-06-14T06:20:14;25.33;21.53
74376;HTU21D;62812;55.188;61.302;2023-06-14T06:22:44;25.05;20.64
74376;HTU21D;62812;55.188;61.302;2023-06-14T06:25:11;24.88;21.45
74376;HTU21D;62812;55.188;61.302;2023-06-14T06:27:40;24.86;21.03
74376;HTU21D;62812;55.188;61.302;2023-06-14T06:30:07;24.76;21.42
74376;HTU21D;62812;55.188;61.302;2023-06-14T06:32:36;24.73;22.36
74376;HTU21D;62812;55.188;61.302;2023-06-14T06:35:04;24.79;22.32
74376;HTU21D;62812;55.188;61.302;2023-06-14T06:37:33;24.84;21.64
74376;HTU21D;62812;55.188;61.302;2023-06-14T06:40:00;24.64;21.15
74376;HTU21D;62812;55.188;61.302;2023-06-14T06:42:27;24.49;21.92
74376;HTU21D;62812;55.188;61.302;2023-06-14T06:44:56;24.31;21.66
74376;HTU21D;62812;55.188;61.302;2023-06-14T06:47:24;24.08;21.68
74376;HTU21D;62812;55.188;61.302;2023-06-14T06:50:11;24.13;22.72
74376;HTU21D;62812;55.188;61.302;2023-06-14T06:52:42;24.19;23.58
74376;HTU21D;62812;55.188;61.302;2023-06-14T06:55:10;24.50;21.77
74376;HTU21D;62812;55.188;61.302;2023-06-14T06:57:37;24.41;21.73
74376;HTU21D;62812;55.188;61.302;2023-06-14T07:00:06;24.27;21.42
74376;HTU21D;62812;55.188;61.302;2023-06-14T07:02:36;24.13;22.18
74376;HTU21D;62812;55.188;61.302;2023-06-14T07:05:03;24.32;24.43
74376;HTU21D;62812;55.188;61.302;2023-06-14T07:07:33;24.70;23.05
74376;HTU21D;62812;55.188;61.302;2023-06-14T07:10:02;24.98;21.64
74376;HTU21D;62812;55.188;61.302;2023-06-14T07:12:31;25.23;21.36
74376;HTU21D;62812;55.188;61.302;2023-06-14T07:15:03;25.34;21.44
74376;HTU21D;62812;55.188;61.302;2023-06-14T07:17:30;25.47;21.16
74376;HTU21D;62812;55.188;61.302;2023-06-14T07:19:57;25.35;21.64
74376;HTU21D;62812;55.188;61.302;2023-06-14T07:22:24;25.40;22.94
74376;HTU21D;62812;55.188;61.302;2023-06-14T07:24:53;25.44;20.06
74376;HTU21D;62812;55.188;61.302;2023-06-14T07:27:20;25.47;21.22
74376;HTU21D;62812;55.188;61.302;2023-06-14T07:29:47;25.54;21.01
74376;HTU21D;62812;55.188;61.302;2023-06-14T07:32:17;25.71;20.71
74376;HTU21D;62812;55.188;61.302;2023-06-14T07:34:44;25.66;19.93
74376;HTU21D;62812;55.188;61.302;2023-06-14T07:37:11;25.64;21.08
74376;HTU21D;62812;55.188;61.302;2023-06-14T07:39:38;25.53;19.22
74376;HTU21D;62812;55.188;61.302;2023-06-14T07:42:07;25.17;19.31
74376;HTU21D;62812;55.188;61.302;2023-06-14T07:44:35;24.76;19.62
74376;HTU21D;62812;55.188;61.302;2023-06-14T07:47:03;24.50;20.39
74376;HTU21D;62812;55.188;61.302;2023-06-14T07:49:31;24.51;22.82
74376;HTU21D;62812;55.188;61.302;2023-06-14T07:51:58;24.40;20.63
74376;HTU21D;62812;55.188;61.302;2023-06-14T07:54:26;24.39;24.04
74376;HTU21D;62812;55.188;61.302;2023-06-14T07:56:54;24.70;21.52
74376;HTU21D;62812;55.188;61.302;2023-06-14T07:59:28;24.79;20.78
74376;HTU21D;62812;55.188;61.302;2023-06-14T08:01:57;24.89;22.11
74376;HTU21D;62812;55.188;61.302;2023-06-14T08:04:25;24.77;19.05
74376;HTU21D;62812;55.188;61.302;2023-06-14T08:06:52;24.51;19.22
74376;HTU21D;62812;55.188;61.302;2023-06-14T08:09:19;24.34;18.54
74376;HTU21D;62812;55.188;61.302;2023-06-14T08:11:47;24.23;17.96
74376;HTU21D;62812;55.188;61.302;2023-06-14T08:14:18;24.03;19.24
74376;HTU21D;62812;55.188;61.302;2023-06-14T08:16:51;23.95;19.48
74376;HTU21D;62812;55.188;61.302;2023-06-14T08:19:19;24.21;19.87
74376;HTU21D;62812;55.188;61.302;2023-06-14T08:21:50;24.33;19.53
74376;HTU21D;62812;55.188;61.302;2023-06-14T08:24:18;24.46;22.71
74376;HTU21D;62812;55.188;61.302;2023-06-14T08:26:51;24.71;20.35
74376;HTU21D;62812;55.188;61.302;2023-06-14T08:29:19;24.91;19.62
74376;HTU21D;62812;55.188;61.302;2023-06-14T08:31:50;24.78;17.96
74376;HTU21D;62812;55.188;61.302;2023-06-14T08:34:17;24.50;19.47
74376;HTU21D;62812;55.188;61.302;2023-06-14T08:36:44;24.23;18.60
74376;HTU21D;62812;55.188;61.302;2023-06-14T08:39:15;24.33;23.16
74376;HTU21D;62812;55.188;61.302;2023-06-14T08:41:47;24.43;18.33
74376;HTU21D;62812;55.188;61.302;2023-06-14T08:44:18;24.43;22.37
74376;HTU21D;62812;55.188;61.302;2023-06-14T08:46:45;24.60;18.93
74376;HTU21D;62812;55.188;61.302;2023-06-14T08:49:16;24.80;18.52
74376;HTU21D;62812;55.188;61.302;2023-06-14T08:51:43;24.84;21.98
74376;HTU21D;62812;55.188;61.302;2023-06-14T08:54:23;25.04;21.05
74376;HTU21D;62812;55.188;61.302;2023-06-14T08:56:56;25.16;20.16
74376;HTU21D;62812;55.188;61.302;2023-06-14T08:59:24;25.05;20.00
74376;HTU21D;62812;55.188;61.302;2023-06-14T09:01:53;25.08;21.36
74376;HTU21D;62812;55.188;61.302;2023-06-14T09:04:25;25.18;21.30
74376;HTU21D;62812;55.188;61.302;2023-06-14T09:06:53;25.17;20.95
74376;HTU21D;62812;55.188;61.302;2023-06-14T09:09:25;24.91;17.85
74376;HTU21D;62812;55.188;61.302;2023-06-14T09:11:55;24.93;21.29
74376;HTU21D;62812;55.188;61.302;2023-06-14T09:14:24;24.92;17.17
74376;HTU21D;62812;55.188;61.302;2023-06-14T09:16:53;24.59;17.38
74376;HTU21D;62812;55.188;61.302;2023-06-14T09:22:21;24.34;17.86
74376;HTU21D;62812;55.188;61.302;2023-06-14T09:24:54;24.49;18.97
74376;HTU21D;62812;55.188;61.302;2023-06-14T09:27:21;24.63;20.81
74376;HTU21D;62812;55.188;61.302;2023-06-14T09:29:48;24.78;19.70
74376;HTU21D;62812;55.188;61.302;2023-06-14T09:32:18;24.77;17.90
74376;HTU21D;62812;55.188;61.302;2023-06-14T09:34:47;24.62;18.06
74376;HTU21D;62812;55.188;61.302;2023-06-14T09:37:30;24.36;17.93
74376;HTU21D;62812;55.188;61.302;2023-06-14T09:40:03;24.40;20.30
74376;HTU21D;62812;55.188;61.302;2023-06-14T09:42:31;24.53;21.37
74376;HTU21D;62812;55.188;61.302;2023-06-14T09:49:14;25.00;21.79
74376;HTU21D;62812;55.188;61.302;2023-06-14T09:51:43;24.84;17.64
74376;HTU21D;62812;55.188;61.302;2023-06-14T09:54:31;24.93;21.73
74376;HTU21D;62812;55.188;61.302;2023-06-14T09:57:01;24.86;18.51
74376;HTU21D;62812;55.188;61.302;2023-06-14T09:59:32;24.61;18.06
74376;HTU21D;62812;55.188;61.302;2023-06-14T10:02:02;24.49;18.60
74376;HTU21D;62812;55.188;61.302;2023-06-14T10:04:34;24.65;20.76
74376;HTU21D;62812;55.188;61.302;2023-06-14T10:07:02;24.78;20.15
74376;HTU21D;62812;55.188;61.302;2023-06-14T10:09:32;24.87;20.25
74376;HTU21D;62812;55.188;61.302;2023-06-14T10:12:05;24.95;18.60
74376;HTU21D;62812;55.188;61.302;2023-06-14T10:14:35;25.00;19.99
74376;HTU21D;62812;55.188;61.302;2023-06-14T10:17:06;25.06;18.31
74376;HTU21D;62812;55.188;61.302;2023-06-14T10:19:50;24.98;17.17
74376;HTU21D;62812;55.188;61.302;2023-06-14T10:22:54;24.71;17.80
74376;HTU21D;62812;55.188;61.302;2023-06-14T10:25:34;24.64;21.30
74376;HTU21D;62812;55.188;61.302;2023-06-14T10:28:18;24.71;19.51
74376;HTU21D;62812;55.188;61.302;2023-06-14T10:31:04;24.71;17.44
74376;HTU21D;62812;55.188;61.302;2023-06-14T10:33:32;24.82;19.02
74376;HTU21D;62812;55.188;61.302;2023-06-14T10:36:25;24.93;20.89
74376;HTU21D;62812;55.188;61.302;2023-06-14T10:38:58;25.04;18.89
74376;HTU21D;62812;55.188;61.302;2023-06-14T10:41:29;25.00;17.31
74376;HTU21D;62812;55.188;61.302;2023-06-14T10:44:38;25.08;18.13
74376;HTU21D;62812;55.188;61.302;2023-06-14T10:47:10;25.25;20.76
74376;HTU21D;62812;55.188;61.302;2023-06-14T10:49:42;25.10;16.54
74376;HTU21D;62812;55.188;61.302;2023-06-14T10:52:13;24.87;15.97
74376;HTU21D;62812;55.188;61.302;2023-06-14T10:55:06;24.84;16.84
74376;HTU21D;62812;55.188;61.302;2023-06-14T10:57:44;24.84;17.36
74376;HTU21D;62812;55.188;61.302;2023-06-14T11:00:24;24.84;21.25
74376;HTU21D;62812;55.188;61.302;2023-06-14T11:06:14;25.19;20.89
74376;HTU21D;62812;55.188;61.302;2023-06-14T11:09:23;25.31;16.19
74376;HTU21D;62812;55.188;61.302;2023-06-14T11:11:57;25.17;16.17
74376;HTU21D;62812;55.188;61.302;2023-06-14T11:14:32;25.12;18.19
74376;HTU21D;62812;55.188;61.302;2023-06-14T11:17:00;24.99;15.71
74376;HTU21D;62812;55.188;61.302;2023-06-14T11:19:29;24.87;15.77
74376;HTU21D;62812;55.188;61.302;2023-06-14T11:21:57;24.89;18.70
74376;HTU21D;62812;55.188;61.302;2023-06-14T11:24:27;25.00;19.38
74376;HTU21D;62812;55.188;61.302;2023-06-14T11:27:23;25.15;20.92
74376;HTU21D;62812;55.188;61.302;2023-06-14T11:29:58;25.16;16.96
74376;HTU21D;62812;55.188;61.302;2023-06-14T11:32:28;25.20;16.06
74376;HTU21D;62812;55.188;61.302;2023-06-14T11:35:00;25.30;19.94
74376;HTU21D;62812;55.188;61.302;2023-06-14T11:37:28;25.37;18.05
74376;HTU21D;62812;55.188;61.302;2023-06-14T11:40:10;25.30;19.09
74376;HTU21D;62812;55.188;61.302;2023-06-14T11:42:40;25.22;19.72
74376;HTU21D;62812;55.188;61.302;2023-06-14T11:45:12;25.27;17.59
74376;HTU21D;62812;55.188;61.302;2023-06-14T11:47:39;25.32;17.71
74376;HTU21D;62812;55.188;61.302;2023-06-14T11:50:22;25.36;20.67
74376;HTU21D;62812;55.188;61.302;2023-06-14T11:52:58;25.35;16.91
74376;HTU21D;62812;55.188;61.302;2023-06-14T11:55:36;25.30;17.11
74376;HTU21D;62812;55.188;61.302;2023-06-14T11:58:22;25.19;17.28
74376;HTU21D;62812;55.188;61.302;2023-06-14T12:04:53;25.06;19.22
74376;HTU21D;62812;55.188;61.302;2023-06-14T12:07:22;25.17;20.53
74376;HTU21D;62812;55.188;61.302;2023-06-14T12:10:05;25.22;18.87
74376;HTU21D;62812;55.188;61.302;2023-06-14T12:12:37;25.14;19.52
74376;HTU21D;62812;55.188;61.302;2023-06-14T12:15:07;25.04;19.88
74376;HTU21D;62812;55.188;61.302;2023-06-14T12:17:47;25.04;22.07
74376;HTU21D;62812;55.188;61.302;2023-06-14T12:20:38;25.08;20.41
74376;HTU21D;62812;55.188;61.302;2023-06-14T12:26:40;25.05;19.61
74376;HTU21D;62812;55.188;61.302;2023-06-14T12:29:19;25.10;19.53
74376;HTU21D;62812;55.188;61.302;2023-06-14T12:31:48;25.20;21.47
74376;HTU21D;62812;55.188;61.302;2023-06-14T12:34:17;25.34;19.48
74376;HTU21D;62812;55.188;61.302;2023-06-14T12:36:50;25.33;20.69
74376;HTU21D;62812;55.188;61.302;2023-06-14T12:39:21;25.40;18.51
74376;HTU21D;62812;55.188;61.302;2023-06-14T12:41:52;25.46;19.51
74376;HTU21D;62812;55.188;61.302;2023-06-14T12:44:24;25.44;17.83
74376;HTU21D;62812;55.188;61.302;2023-06-14T12:46:51;25.46;17.61
74376;HTU21D;62812;55.188;61.302;2023-06-14T12:49:27;25.57;17.71
74376;HTU21D;62812;55.188;61.302;2023-06-14T12:52:29;25.60;16.42
74376;HTU21D;62812;55.188;61.302;2023-06-14T12:55:34;25.54;19.01
74376;HTU21D;62812;55.188;61.302;2023-06-14T12:58:09;25.50;15.54
74376;HTU21D;62812;55.188;61.302;2023-06-14T13:00:47;25.47;16.85
74376;HTU21D;62812;55.188;61.302;2023-06-14T13:03:18;25.48;15.74
74376;HTU21D;62812;55.188;61.302;2023-06-14T13:05:57;25.50;15.90
74376;HTU21D;62812;55.188;61.302;2023-06-14T13:08:37;25.52;16.25
74376;HTU21D;62812;55.188;61.302;2023-06-14T13:11:11;25.58;18.53
74376;HTU21D;62812;55.188;61.302;2023-06-14T13:14:42;25.74;16.51
74376;HTU21D;62812;55.188;61.302;2023-06-14T13:17:24;25.84;17.47
74376;HTU21D;62812;55.188;61.302;2023-06-14T13:19:53;25.72;15.06
74376;HTU21D;62812;55.188;61.302;2023-06-14T13:22:23;25.62;14.77
74376;HTU21D;62812;55.188;61.302;2023-06-14T13:25:07;25.39;16.63
74376;HTU21D;62812;55.188;61.302;2023-06-14T13:27:37;25.34;15.75
74376;HTU21D;62812;55.188;61.302;2023-06-14T13:30:05;25.33;16.00
74376;HTU21D;62812;55.188;61.302;2023-06-14T13:32:33;25.21;16.22
74376;HTU21D;62812;55.188;61.302;2023-06-14T13:35:00;25.24;16.48
74376;HTU21D;62812;55.188;61.302;2023-06-14T13:37:27;25.30;16.54
74376;HTU21D;62812;55.188;61.302;2023-06-14T13:39:56;25.23;16.24
74376;HTU21D;62812;55.188;61.302;2023-06-14T13:42:26;25.19;16.25
74376;HTU21D;62812;55.188;61.302;2023-06-14T13:44:53;25.19;16.66
74376;HTU21D;62812;55.188;61.302;2023-06-14T13:47:26;25.23;15.74
74376;HTU21D;62812;55.188;61.302;2023-06-14T13:50:13;25.22;15.74
74376;HTU21D;62812;55.188;61.302;2023-06-14T13:52:42;25.17;15.79
74376;HTU21D;62812;55.188;61.302;2023-06-14T13:55:10;25.06;17.18
74376;HTU21D;62812;55.188;61.302;2023-06-14T14:00:50;25.09;16.29
74376;HTU21D;62812;55.188;61.302;2023-06-14T14:03:20;25.03;20.75
74376;HTU21D;62812;55.188;61.302;2023-06-14T14:05:48;24.93;16.30
74376;HTU21D;62812;55.188;61.302;2023-06-14T14:08:15;24.86;17.85
74376;HTU21D;62812;55.188;61.302;2023-06-14T14:10:43;24.79;17.25
74376;HTU21D;62812;55.188;61.302;2023-06-14T14:13:11;24.75;15.97
74376;HTU21D;62812;55.188;61.302;2023-06-14T14:15:39;24.75;21.24
74376;HTU21D;62812;55.188;61.302;2023-06-14T14:18:18;24.69;16.17
74376;HTU21D;62812;55.188;61.302;2023-06-14T14:20:47;24.56;16.18
74376;HTU21D;62812;55.188;61.302;2023-06-14T14:23:16;24.51;19.60
74376;HTU21D;62812;55.188;61.302;2023-06-14T14:25:43;24.51;16.38
74376;HTU21D;62812;55.188;61.302;2023-06-14T14:28:14;24.55;16.18
74376;HTU21D;62812;55.188;61.302;2023-06-14T14:30:43;24.51;16.03
74376;HTU21D;62812;55.188;61.302;2023-06-14T14:33:13;24.49;17.53
74376;HTU21D;62812;55.188;61.302;2023-06-14T14:35:42;24.54;16.61
74376;HTU21D;62812;55.188;61.302;2023-06-14T14:38:11;24.56;16.71
74376;HTU21D;62812;55.188;61.302;2023-06-14T14:40:40;24.62;18.73
74376;HTU21D;62812;55.188;61.302;2023-06-14T14:43:07;24.61;17.38
74376;HTU21D;62812;55.188;61.302;2023-06-14T14:45:35;24.62;17.77
74376;HTU21D;62812;55.188;61.302;2023-06-14T14:48:07;24.58;16.24
74376;HTU21D;62812;55.188;61.302;2023-06-14T14:50:37;24.53;18.02
74376;HTU21D;62812;55.188;61.302;2023-06-14T14:53:07;24.48;16.35
74376;HTU21D;62812;55.188;61.302;2023-06-14T14:55:36;24.40;16.96
74376;HTU21D;62812;55.188;61.302;2023-06-14T14:58:06;24.29;17.15
74376;HTU21D;62812;55.188;61.302;2023-06-14T15:00:33;24.18;17.73
74376;HTU21D;62812;55.188;61.302;2023-06-14T15:03:01;24.11;17.99
74376;HTU21D;62812;55.188;61.302;2023-06-14T15:05:28;24.01;18.11
74376;HTU21D;62812;55.188;61.302;2023-06-14T15:08:00;23.95;17.88
74376;HTU21D;62812;55.188;61.302;2023-06-14T15:10:27;23.87;17.99
74376;HTU21D;62812;55.188;61.302;2023-06-14T15:12:56;23.79;17.17
74376;HTU21D;62812;55.188;61.302;2023-06-14T15:15:26;23.73;17.76
74376;HTU21D;62812;55.188;61.302;2023-06-14T15:17:55;23.70;17.70
74376;HTU21D;62812;55.188;61.302;2023-06-14T15:20:25;23.64;17.38
74376;HTU21D;62812;55.188;61.302;2023-06-14T15:22:55;23.59;18.31
74376;HTU21D;62812;55.188;61.302;2023-06-14T15:25:30;23.58;17.99
74376;HTU21D;62812;55.188;61.302;2023-06-14T15:28:00;23.51;18.51
74376;HTU21D;62812;55.188;61.302;2023-06-14T15:30:28;23.49;21.82
74376;HTU21D;62812;55.188;61.302;2023-06-14T15:32:59;23.45;18.25
74376;HTU21D;62812;55.188;61.302;2023-06-14T15:35:28;23.43;18.96
74376;HTU21D;62812;55.188;61.302;2023-06-14T15:37:56;23.38;18.90
74376;HTU21D;62812;55.188;61.302;2023-06-14T15:40:24;23.36;18.92
74376;HTU21D;62812;55.188;61.302;2023-06-14T15:42:54;23.30;18.31
74376;HTU21D;62812;55.188;61.302;2023-06-14T15:45:23;23.28;20.97
74376;HTU21D;62812;55.188;61.302;2023-06-14T15:47:50;23.25;18.88
74376;HTU21D;62812;55.188;61.302;2023-06-14T15:50:19;23.20;18.35
74376;HTU21D;62812;55.188;61.302;2023-06-14T15:52:46;23.14;18.90